Time;durP1;ratioP1;P1;durP2;ratioP2;P2;SDS_P1;SDS_P2;PMS_P1;PMS_P2;Temp;Humidity;BMP_temperature;BMP_pressure;BME280_temperature;BME280_humidity;BME280_pressure;Samples;Min_cycle;Max_cycle;Signal;HPM_P1;HPM_P2
2023/10/06 00:02:19;;;;;;;9.82;3.85;;;15.30;69.60;;;;;;5076029;28;20127;-66
2023/10/06 00:04:45;;;;;;;7.20;3.50;;;15.30;69.70;;;;;;5074678;28;20066;-67
2023/10/06 00:07:14;;;;;;;8.77;3.63;;;15.30;69.80;;;;;;5073413;28;20064;-66
2023/10/06 00:09:43;;;;;;;7.22;3.20;;;15.20;70.00;;;;;;5073581;28;20086;-67
2023/10/06 00:12:13;;;;;;;7.40;3.40;;;15.20;70.30;;;;;;5073230;28;20031;-69
2023/10/06 00:14:39;;;;;;;8.50;3.42;;;15.10;70.40;;;;;;5073476;28;20029;-66
2023/10/06 00:17:28;;;;;;;9.43;3.75;;;15.10;70.30;;;;;;5073770;28;20078;-66
2023/10/06 00:19:56;;;;;;;7.13;3.17;;;15.10;70.50;;;;;;5072154;28;20025;-67
2023/10/06 00:22:26;;;;;;;11.02;4.28;;;15.10;70.70;;;;;;5075199;28;20017;-66
2023/10/06 00:24:55;;;;;;;8.60;3.33;;;15.10;70.60;;;;;;5072085;28;20020;-67
2023/10/06 00:27:29;;;;;;;9.43;3.45;;;15.10;70.70;;;;;;5072482;28;20037;-67
2023/10/06 00:29:55;;;;;;;10.57;3.25;;;15.10;70.90;;;;;;5072982;28;20044;-67
2023/10/06 00:32:26;;;;;;;11.02;3.63;;;15.10;71.00;;;;;;5072242;28;20025;-67
2023/10/06 00:34:52;;;;;;;10.60;3.47;;;15.00;71.10;;;;;;5073159;28;20423;-67
2023/10/06 00:37:22;;;;;;;11.50;3.78;;;15.00;71.20;;;;;;5071275;28;20041;-67
2023/10/06 00:39:50;;;;;;;9.27;3.55;;;15.00;71.50;;;;;;5072928;28;20481;-67
2023/10/06 00:42:19;;;;;;;9.38;3.28;;;15.00;71.60;;;;;;5072509;28;20035;-67
2023/10/06 00:44:46;;;;;;;10.95;3.42;;;14.90;71.80;;;;;;5072936;28;20024;-66
2023/10/06 00:47:15;;;;;;;9.13;3.58;;;14.90;72.10;;;;;;5072423;28;20032;-67
2023/10/06 00:49:43;;;;;;;10.73;3.83;;;14.90;72.40;;;;;;5072815;28;20358;-67
2023/10/06 00:52:11;;;;;;;9.68;3.63;;;14.80;72.70;;;;;;5072425;28;20039;-67
2023/10/06 00:54:44;;;;;;;8.30;3.55;;;14.80;73.00;;;;;;5072700;28;20106;-67
2023/10/06 00:57:18;;;;;;;11.80;4.10;;;14.70;73.30;;;;;;5072562;28;20044;-67
2023/10/06 00:59:44;;;;;;;9.30;4.22;;;14.60;73.70;;;;;;5072822;28;20108;-67
2023/10/06 01:02:11;;;;;;;10.30;3.88;;;14.60;74.00;;;;;;5072882;28;20060;-67
2023/10/06 01:04:44;;;;;;;6.78;3.83;;;14.60;74.40;;;;;;5072130;28;20461;-67
2023/10/06 01:07:16;;;;;;;10.10;3.88;;;14.50;74.70;;;;;;5072654;28;20028;-67
2023/10/06 01:10:06;;;;;;;9.13;3.88;;;14.50;74.90;;;;;;5071336;28;20028;-67
2023/10/06 01:12:32;;;;;;;8.50;3.67;;;14.50;75.20;;;;;;5089216;28;20024;-67
2023/10/06 01:17:43;;;;;;;10.43;4.18;;;14.40;75.60;;;;;;5092482;28;20505;-67
2023/10/06 01:20:11;;;;;;;12.68;3.97;;;14.40;75.70;;;;;;5092345;28;20497;-67
2023/10/06 01:22:44;;;;;;;7.40;3.78;;;14.40;75.90;;;;;;5090939;28;20478;-67
2023/10/06 01:25:13;;;;;;;8.40;3.88;;;14.40;75.80;;;;;;5092612;28;20345;-67
2023/10/06 01:27:39;;;;;;;10.38;3.75;;;14.40;76.10;;;;;;5092212;28;20035;-67
2023/10/06 01:30:23;;;;;;;11.07;4.10;;;14.40;76.40;;;;;;5092557;28;20099;-67
2023/10/06 01:32:50;;;;;;;8.45;3.80;;;14.40;76.20;;;;;;5092549;28;20031;-67
2023/10/06 01:35:17;;;;;;;8.07;3.08;;;14.40;76.50;;;;;;5092044;28;20025;-68
2023/10/06 01:37:44;;;;;;;9.38;4.03;;;14.40;76.60;;;;;;5092466;28;20115;-67
2023/10/06 01:42:55;;;;;;;10.48;3.97;;;14.40;77.10;;;;;;5092518;28;20091;-67
2023/10/06 01:45:21;;;;;;;8.00;3.70;;;14.30;77.10;;;;;;5091981;28;20028;-67
2023/10/06 01:47:56;;;;;;;10.32;4.10;;;14.40;77.20;;;;;;5092324;28;20059;-66
2023/10/06 01:50:26;;;;;;;11.23;4.43;;;14.30;77.30;;;;;;5091921;28;20031;-67
2023/10/06 01:52:53;;;;;;;10.80;3.97;;;14.30;77.80;;;;;;5088878;28;20020;-66
2023/10/06 01:55:23;;;;;;;10.43;4.20;;;14.30;77.90;;;;;;5091665;28;20736;-67
2023/10/06 01:57:49;;;;;;;10.10;3.75;;;14.30;78.10;;;;;;5092264;28;20048;-66
2023/10/06 02:00:17;;;;;;;6.50;3.20;;;14.20;78.60;;;;;;5092238;28;20024;-66
2023/10/06 02:02:42;;;;;;;7.00;3.38;;;14.30;78.60;;;;;;5093154;28;20031;-66
2023/10/06 02:05:12;;;;;;;12.23;3.70;;;14.30;78.50;;;;;;5095655;28;20032;-68
2023/10/06 02:07:40;;;;;;;8.80;3.90;;;14.30;78.80;;;;;;5095477;28;20043;-68
2023/10/06 02:10:12;;;;;;;7.78;3.47;;;14.20;79.10;;;;;;5095977;28;20024;-68
2023/10/06 02:12:38;;;;;;;10.98;3.55;;;14.30;79.10;;;;;;5095491;28;20032;-65
2023/10/06 02:15:10;;;;;;;11.93;4.00;;;14.30;78.90;;;;;;5096215;28;20032;-67
2023/10/06 02:17:42;;;;;;;7.20;2.78;;;14.30;79.00;;;;;;5095425;28;20115;-66
2023/10/06 02:20:13;;;;;;;13.65;3.65;;;14.30;79.10;;;;;;5094654;28;20028;-67
2023/10/06 02:22:38;;;;;;;9.98;3.65;;;14.30;79.40;;;;;;5076084;28;20374;-67
2023/10/06 02:25:10;;;;;;;9.73;3.00;;;14.30;79.50;;;;;;5076114;28;20150;-66
2023/10/06 02:27:44;;;;;;;19.23;3.95;;;14.30;79.30;;;;;;5075346;28;20061;-66
2023/10/06 02:30:15;;;;;;;11.25;3.88;;;14.30;79.40;;;;;;5075582;28;20033;-67
2023/10/06 02:32:44;;;;;;;11.00;3.60;;;14.30;79.70;;;;;;5074824;28;20031;-68
2023/10/06 02:35:12;;;;;;;10.25;3.95;;;14.30;79.90;;;;;;5075240;28;20175;-68
2023/10/06 02:37:38;;;;;;;11.48;4.20;;;14.20;80.10;;;;;;5074775;28;20047;-66
2023/10/06 02:40:11;;;;;;;10.90;3.85;;;14.20;80.40;;;;;;5074970;28;20028;-67
2023/10/06 02:42:46;;;;;;;11.20;4.38;;;14.10;80.40;;;;;;5074719;28;20040;-67
2023/10/06 02:45:20;;;;;;;10.75;3.88;;;14.20;80.60;;;;;;5074609;28;20029;-66
2023/10/06 02:47:46;;;;;;;11.32;4.53;;;14.20;80.50;;;;;;5075002;28;20033;-65
2023/10/06 02:50:19;;;;;;;13.48;3.78;;;14.10;80.70;;;;;;5075110;28;20025;-66
2023/10/06 02:52:46;;;;;;;12.73;4.45;;;14.10;81.00;;;;;;5074767;28;20025;-66
2023/10/06 02:55:13;;;;;;;12.90;4.65;;;14.00;81.40;;;;;;5074715;28;20078;-67
2023/10/06 02:57:42;;;;;;;13.48;4.45;;;14.00;81.90;;;;;;5074465;28;20060;-68
2023/10/06 03:03:11;;;;;;;9.95;4.28;;;13.90;82.40;;;;;;5069672;28;20029;-67
2023/10/06 03:05:39;;;;;;;12.75;4.30;;;13.90;82.40;;;;;;5074350;28;20546;-67
2023/10/06 03:08:11;;;;;;;9.25;4.43;;;13.90;82.50;;;;;;5074380;28;20112;-66
2023/10/06 03:10:48;;;;;;;9.70;4.18;;;13.90;82.80;;;;;;5074235;28;20029;-67
2023/10/06 03:13:43;;;;;;;9.32;3.72;;;13.90;82.80;;;;;;5081711;28;20024;-67
2023/10/06 03:16:10;;;;;;;8.27;3.80;;;13.80;83.10;;;;;;5094335;28;20546;-67
2023/10/06 03:18:36;;;;;;;12.02;4.00;;;13.80;83.30;;;;;;5094147;28;20476;-67
2023/10/06 03:21:13;;;;;;;9.00;4.10;;;13.80;83.60;;;;;;5094351;28;20032;-67
2023/10/06 03:23:39;;;;;;;10.15;4.72;;;13.80;83.90;;;;;;5094046;28;20036;-67
2023/10/06 03:26:18;;;;;;;11.18;3.70;;;13.70;84.00;;;;;;5094435;28;20411;-67
2023/10/06 03:28:48;;;;;;;10.52;4.25;;;13.70;84.20;;;;;;5093961;28;20038;-67
2023/10/06 03:33:46;;;;;;;10.13;4.13;;;13.60;84.70;;;;;;5093909;28;20546;-66
2023/10/06 03:36:15;;;;;;;7.60;4.20;;;13.60;84.90;;;;;;5094305;28;20035;-68
2023/10/06 03:38:51;;;;;;;9.73;4.25;;;13.60;85.20;;;;;;5093697;28;20032;-67
2023/10/06 03:41:24;;;;;;;10.07;4.68;;;13.50;85.70;;;;;;5094168;28;20107;-67
2023/10/06 03:43:54;;;;;;;9.07;3.90;;;13.50;86.10;;;;;;5094269;28;20419;-66
2023/10/06 03:46:24;;;;;;;12.05;4.40;;;13.50;86.40;;;;;;5093963;28;20032;-66
2023/10/06 03:48:51;;;;;;;10.52;3.88;;;13.40;86.80;;;;;;5093933;28;20032;-67
2023/10/06 03:51:20;;;;;;;9.30;4.22;;;13.40;87.10;;;;;;5093925;28;20461;-67
2023/10/06 03:53:48;;;;;;;10.02;4.18;;;13.40;87.30;;;;;;5091659;28;20036;-67
2023/10/06 03:56:17;;;;;;;25.95;4.93;;;13.40;87.40;;;;;;5092422;28;20031;-67
2023/10/06 03:58:46;;;;;;;10.40;3.80;;;13.40;87.60;;;;;;5093051;28;20079;-67
2023/10/06 04:01:26;;;;;;;9.65;4.40;;;13.40;87.40;;;;;;5093819;28;20020;-67
2023/10/06 04:03:58;;;;;;;12.27;4.15;;;13.40;87.60;;;;;;5094196;28;20077;-67
2023/10/06 04:06:27;;;;;;;12.15;4.53;;;13.40;87.90;;;;;;5093773;28;20431;-67
2023/10/06 04:08:53;;;;;;;12.18;4.72;;;13.40;88.10;;;;;;5093546;28;20028;-66
2023/10/06 04:11:19;;;;;;;10.05;4.22;;;13.30;88.40;;;;;;5093607;28;20089;-67
2023/10/06 04:13:45;;;;;;;14.98;4.55;;;13.30;88.90;;;;;;5093129;28;20067;-67
2023/10/06 04:16:14;;;;;;;10.60;4.40;;;13.20;89.10;;;;;;5085488;28;20048;-66
2023/10/06 04:18:41;;;;;;;10.88;4.65;;;13.20;89.20;;;;;;5072741;28;20079;-66
2023/10/06 04:21:11;;;;;;;7.82;4.00;;;13.20;89.50;;;;;;5073298;28;20028;-67
2023/10/06 04:23:43;;;;;;;9.45;4.13;;;13.20;89.80;;;;;;5071555;28;20030;-67
2023/10/06 04:26:10;;;;;;;12.90;4.78;;;13.10;90.10;;;;;;5072165;28;20029;-67
2023/10/06 04:28:37;;;;;;;12.02;4.60;;;13.20;90.10;;;;;;5072495;28;20370;-67
2023/10/06 04:31:05;;;;;;;8.30;4.03;;;13.10;90.20;;;;;;5073143;28;20512;-67
2023/10/06 04:33:31;;;;;;;9.68;4.03;;;13.10;90.30;;;;;;5072384;28;20024;-67
2023/10/06 04:36:07;;;;;;;11.25;4.38;;;13.10;90.40;;;;;;5071831;28;20032;-66
2023/10/06 04:38:40;;;;;;;13.27;4.25;;;13.00;90.50;;;;;;5072562;28;20025;-66
2023/10/06 04:41:08;;;;;;;10.95;3.92;;;13.00;90.70;;;;;;5072959;28;20016;-66
2023/10/06 04:43:37;;;;;;;13.88;4.85;;;13.00;90.90;;;;;;5072488;28;20029;-67
2023/10/06 04:46:05;;;;;;;10.63;4.30;;;12.90;91.00;;;;;;5074894;28;20074;-67
2023/10/06 04:48:38;;;;;;;11.98;4.22;;;12.90;91.10;;;;;;5071041;28;20035;-67
2023/10/06 04:51:09;;;;;;;13.77;4.70;;;12.90;91.30;;;;;;5074995;28;20036;-68
2023/10/06 04:53:36;;;;;;;11.18;3.92;;;12.90;91.40;;;;;;5092531;28;20028;-66
2023/10/06 04:56:08;;;;;;;8.93;3.83;;;12.90;91.40;;;;;;5092937;28;20059;-66
2023/10/06 04:58:36;;;;;;;11.05;4.45;;;12.80;91.60;;;;;;5092741;28;20123;-68
2023/10/06 05:01:02;;;;;;;9.68;4.70;;;12.80;91.70;;;;;;5089256;28;20103;-68
2023/10/06 05:03:40;;;;;;;10.48;4.10;;;12.80;91.90;;;;;;5083381;28;20032;-67
2023/10/06 05:06:14;;;;;;;14.55;4.40;;;12.80;91.90;;;;;;5077599;28;20080;-65
2023/10/06 05:08:40;;;;;;;13.98;4.65;;;12.80;92.00;;;;;;5092251;28;20032;-67
2023/10/06 05:11:11;;;;;;;10.18;4.55;;;12.80;92.00;;;;;;5092694;28;20039;-66
2023/10/06 05:13:37;;;;;;;13.30;4.50;;;12.80;92.10;;;;;;5092332;28;20076;-66
2023/10/06 05:16:03;;;;;;;9.07;4.05;;;12.80;92.10;;;;;;5078084;28;20705;-66
2023/10/06 05:18:29;;;;;;;11.50;4.40;;;12.80;92.20;;;;;;5071060;28;20029;-66
2023/10/06 05:20:55;;;;;;;12.27;4.07;;;12.70;92.40;;;;;;5071948;28;20435;-66
2023/10/06 05:23:21;;;;;;;11.00;4.38;;;12.70;92.50;;;;;;5072582;28;20050;-66
2023/10/06 05:25:47;;;;;;;12.75;4.72;;;12.70;92.60;;;;;;5072057;28;20029;-65
2023/10/06 05:28:16;;;;;;;12.98;4.75;;;12.70;92.60;;;;;;5077369;28;20492;-66
2023/10/06 05:30:43;;;;;;;11.27;4.50;;;12.70;92.70;;;;;;5072016;28;20032;-66
2023/10/06 05:33:09;;;;;;;12.52;4.55;;;12.70;92.80;;;;;;5072464;28;20033;-66
2023/10/06 05:35:40;;;;;;;10.93;4.53;;;12.70;92.70;;;;;;5071999;28;20035;-67
2023/10/06 05:38:16;;;;;;;12.95;4.55;;;12.70;92.70;;;;;;5074050;28;20402;-65
2023/10/06 05:40:46;;;;;;;9.55;4.25;;;12.80;92.70;;;;;;5075682;28;20034;-66
2023/10/06 05:43:12;;;;;;;11.30;4.23;;;12.80;92.90;;;;;;5076124;28;20025;-66
2023/10/06 05:45:41;;;;;;;9.02;4.53;;;12.70;93.00;;;;;;5075562;28;20459;-68
2023/10/06 05:48:15;;;;;;;10.70;3.97;;;12.80;93.10;;;;;;5076503;28;20033;-66
2023/10/06 05:50:41;;;;;;;13.05;4.15;;;12.70;93.20;;;;;;5075465;28;20040;-66
2023/10/06 05:53:12;;;;;;;10.45;4.30;;;12.70;93.10;;;;;;5075908;28;20024;-66
2023/10/06 05:55:42;;;;;;;14.13;4.47;;;12.70;93.30;;;;;;5075564;28;20150;-66
2023/10/06 05:58:09;;;;;;;15.25;4.97;;;12.80;93.30;;;;;;5074463;28;20051;-66
2023/10/06 06:00:43;;;;;;;16.48;4.35;;;12.80;93.10;;;;;;5075517;28;20028;-72
2023/10/06 06:03:13;;;;;;;16.13;4.57;;;12.80;93.20;;;;;;5076132;28;20029;-66
2023/10/06 06:05:40;;;;;;;8.55;3.80;;;12.80;93.20;;;;;;5075370;28;20393;-66
2023/10/06 06:08:09;;;;;;;11.38;4.80;;;12.80;93.50;;;;;;5075618;28;20105;-66
2023/10/06 06:10:41;;;;;;;11.32;4.40;;;12.90;93.40;;;;;;5075355;28;20028;-66
2023/10/06 06:13:07;;;;;;;13.25;4.20;;;12.90;93.10;;;;;;5078610;28;20024;-66
2023/10/06 06:15:35;;;;;;;15.07;4.22;;;12.90;93.10;;;;;;5075251;28;20032;-66
2023/10/06 06:18:01;;;;;;;15.15;5.35;;;12.90;93.00;;;;;;5075503;28;20040;-65
2023/10/06 06:20:28;;;;;;;13.35;4.85;;;13.00;93.30;;;;;;5075015;28;20052;-66
2023/10/06 06:22:58;;;;;;;14.07;4.75;;;13.10;92.90;;;;;;5074900;28;20029;-64
2023/10/06 06:25:24;;;;;;;12.30;4.25;;;13.10;93.10;;;;;;5075453;28;20430;-67
2023/10/06 06:27:54;;;;;;;12.27;5.07;;;13.10;92.80;;;;;;5074737;28;20064;-66
2023/10/06 06:30:24;;;;;;;10.10;4.80;;;13.20;92.80;;;;;;5075201;28;20029;-66
2023/10/06 06:32:52;;;;;;;8.65;4.10;;;13.20;92.70;;;;;;5075097;28;20029;-65
2023/10/06 06:35:19;;;;;;;13.07;4.40;;;13.30;92.80;;;;;;5075332;28;20461;-66
2023/10/06 06:37:51;;;;;;;11.65;3.85;;;13.30;92.60;;;;;;5074831;28;20047;-67
2023/10/06 06:40:19;;;;;;;10.77;4.35;;;13.40;92.30;;;;;;5074993;28;20454;-66
2023/10/06 06:42:46;;;;;;;11.90;4.18;;;13.40;92.00;;;;;;5074555;28;20024;-66
2023/10/06 06:45:13;;;;;;;12.85;4.13;;;13.50;91.90;;;;;;5073849;28;20032;-65
2023/10/06 06:47:41;;;;;;;12.20;4.47;;;13.60;91.70;;;;;;5074341;28;20032;-66
2023/10/06 06:50:09;;;;;;;14.32;4.18;;;13.70;91.70;;;;;;5074389;28;20043;-65
2023/10/06 06:52:35;;;;;;;10.38;4.30;;;13.70;91.70;;;;;;5074968;28;20024;-65
2023/10/06 06:55:01;;;;;;;12.55;4.50;;;13.80;91.20;;;;;;5074243;28;20034;-66
2023/10/06 06:57:27;;;;;;;12.43;4.50;;;13.90;91.20;;;;;;5074245;28;20048;-66
2023/10/06 06:59:52;;;;;;;9.27;3.95;;;13.90;90.90;;;;;;5074145;28;20078;-68
2023/10/06 07:02:20;;;;;;;15.23;5.15;;;14.00;91.00;;;;;;5075067;28;20107;-66
2023/10/06 07:04:47;;;;;;;12.60;4.43;;;14.10;90.50;;;;;;5072777;28;20042;-65
2023/10/06 07:07:13;;;;;;;9.43;3.65;;;14.10;90.40;;;;;;5087592;28;20084;-66
2023/10/06 07:09:38;;;;;;;10.55;4.10;;;14.20;90.00;;;;;;5094867;28;20045;-67
2023/10/06 07:12:04;;;;;;;10.80;3.85;;;14.30;89.40;;;;;;5093948;28;20028;-66
2023/10/06 07:14:30;;;;;;;14.23;3.60;;;14.50;89.10;;;;;;5094556;28;20032;-66
2023/10/06 07:16:56;;;;;;;9.05;4.05;;;14.60;88.60;;;;;;5094345;28;20157;-66
2023/10/06 07:19:22;;;;;;;12.95;4.07;;;14.80;87.70;;;;;;5095018;28;20039;-67
2023/10/06 07:21:49;;;;;;;12.38;3.58;;;15.10;87.20;;;;;;5094100;28;20025;-66
2023/10/06 07:24:15;;;;;;;10.90;3.75;;;15.40;85.20;;;;;;5094533;28;20028;-66
2023/10/06 07:26:43;;;;;;;16.08;4.43;;;15.70;83.80;;;;;;5094336;28;20153;-66
2023/10/06 07:29:09;;;;;;;12.57;4.20;;;16.00;81.50;;;;;;5093935;28;20483;-65
2023/10/06 07:31:35;;;;;;;8.07;3.72;;;16.40;80.10;;;;;;5092895;28;20051;-65
2023/10/06 07:34:05;;;;;;;8.65;3.58;;;16.70;79.30;;;;;;5093770;28;20027;-65
2023/10/06 07:36:35;;;;;;;8.97;3.43;;;17.00;76.70;;;;;;5094116;28;20028;-66
2023/10/06 07:39:03;;;;;;;9.23;3.70;;;17.20;75.40;;;;;;5093168;28;20476;-65
2023/10/06 07:41:29;;;;;;;14.80;4.00;;;17.40;73.50;;;;;;5093917;28;20028;-66
2023/10/06 07:43:56;;;;;;;10.88;3.95;;;17.60;72.60;;;;;;5093207;28;20039;-65
2023/10/06 07:46:22;;;;;;;13.50;3.33;;;17.90;72.50;;;;;;5090218;28;20448;-65
2023/10/06 07:48:50;;;;;;;10.50;3.55;;;18.30;71.60;;;;;;5093426;28;20046;-65
2023/10/06 07:51:19;;;;;;;6.70;3.03;;;18.70;70.10;;;;;;5093924;28;20449;-65
2023/10/06 07:53:45;;;;;;;7.68;3.38;;;18.90;69.00;;;;;;5093115;28;20099;-66
2023/10/06 07:56:11;;;;;;;10.38;3.42;;;19.40;66.60;;;;;;5093720;28;20111;-66
2023/10/06 07:58:38;;;;;;;9.35;3.30;;;19.80;65.40;;;;;;5093527;28;20059;-66
2023/10/06 08:01:07;;;;;;;7.88;3.30;;;20.20;63.40;;;;;;5092293;28;20035;-66
2023/10/06 08:03:38;;;;;;;10.40;3.55;;;21.10;61.90;;;;;;5093607;28;20024;-66
2023/10/06 08:06:05;;;;;;;16.30;3.65;;;22.00;59.50;;;;;;5093086;28;20340;-66
2023/10/06 08:08:33;;;;;;;9.43;3.38;;;22.30;57.30;;;;;;5093144;28;20414;-66
2023/10/06 08:11:01;;;;;;;11.63;4.07;;;22.30;56.80;;;;;;5091793;28;20123;-66
2023/10/06 08:13:37;;;;;;;9.25;3.42;;;22.20;55.60;;;;;;5093563;28;20077;-66
2023/10/06 08:16:06;;;;;;;6.47;2.78;;;22.10;55.90;;;;;;5091638;28;20031;-65
2023/10/06 08:18:32;;;;;;;9.15;3.00;;;21.90;56.00;;;;;;5091586;28;20036;-65
2023/10/06 08:21:01;;;;;;;6.53;3.10;;;21.60;57.20;;;;;;5092943;28;20055;-65
2023/10/06 08:23:31;;;;;;;10.10;3.25;;;21.70;57.20;;;;;;5093346;28;20031;-65
2023/10/06 08:25:58;;;;;;;9.75;3.00;;;21.70;56.30;;;;;;5091823;28;20032;-65
2023/10/06 08:28:26;;;;;;;7.38;2.88;;;21.70;55.90;;;;;;5092966;28;20043;-65
2023/10/06 08:30:54;;;;;;;7.97;2.83;;;21.80;55.30;;;;;;5092795;28;20032;-66
2023/10/06 08:33:20;;;;;;;8.55;2.85;;;21.80;55.10;;;;;;5093330;28;20062;-66
2023/10/06 08:35:46;;;;;;;7.88;3.17;;;21.80;55.30;;;;;;5092843;28;20388;-70
2023/10/06 08:38:11;;;;;;;10.20;2.80;;;22.00;55.70;;;;;;5091688;28;20479;-65
2023/10/06 08:40:41;;;;;;;8.13;2.47;;;21.80;53.60;;;;;;5092717;28;20032;-66
2023/10/06 08:43:08;;;;;;;5.20;2.45;;;21.90;53.20;;;;;;5092439;28;20031;-66
2023/10/06 08:45:41;;;;;;;6.47;2.67;;;21.80;51.90;;;;;;5092562;28;20088;-66
2023/10/06 08:48:13;;;;;;;9.93;2.88;;;21.90;51.50;;;;;;5092073;28;20389;-66
2023/10/06 08:50:43;;;;;;;5.50;2.80;;;21.90;50.70;;;;;;5092489;28;20075;-66
2023/10/06 08:53:14;;;;;;;4.40;2.42;;;22.00;51.00;;;;;;5092209;28;20038;-65
2023/10/06 08:55:44;;;;;;;4.90;2.90;;;22.00;50.20;;;;;;5092544;28;20028;-66
2023/10/06 08:58:13;;;;;;;4.60;2.53;;;21.90;48.90;;;;;;5092254;28;20048;-66
2023/10/06 09:00:43;;;;;;;6.07;2.65;;;21.80;49.70;;;;;;5092673;28;20432;-66
2023/10/06 09:03:14;;;;;;;7.32;2.75;;;21.60;50.50;;;;;;5090460;28;20047;-66
2023/10/06 09:05:44;;;;;;;4.90;2.70;;;21.80;50.50;;;;;;5092631;28;20073;-65
2023/10/06 09:08:17;;;;;;;7.00;2.78;;;21.60;50.00;;;;;;5092128;28;20366;-66
2023/10/06 09:10:54;;;;;;;6.50;3.03;;;21.50;49.90;;;;;;5092520;28;20488;-65
2023/10/06 09:13:21;;;;;;;8.68;2.70;;;21.50;50.30;;;;;;5099026;28;20032;-65
2023/10/06 09:15:57;;;;;;;3.88;2.20;;;21.50;49.70;;;;;;5099007;28;20042;-65
2023/10/06 09:18:27;;;;;;;5.35;2.42;;;21.50;49.60;;;;;;5099158;28;20032;-65
2023/10/06 09:20:54;;;;;;;7.38;2.60;;;21.60;49.30;;;;;;5098564;28;20051;-66
2023/10/06 09:23:32;;;;;;;6.88;2.72;;;21.60;49.50;;;;;;5098892;28;20085;-65
2023/10/06 09:26:03;;;;;;;7.05;2.60;;;21.60;49.60;;;;;;5098772;28;20560;-66
2023/10/06 09:28:30;;;;;;;7.47;2.58;;;21.70;49.90;;;;;;5099069;28;20035;-65
2023/10/06 09:31:00;;;;;;;6.90;2.67;;;22.00;50.50;;;;;;5098675;28;20032;-66
2023/10/06 09:33:38;;;;;;;6.53;3.00;;;22.20;50.40;;;;;;5098930;28;20031;-66
2023/10/06 09:36:16;;;;;;;9.38;2.90;;;22.40;50.20;;;;;;5098126;28;20465;-66
2023/10/06 09:38:44;;;;;;;7.85;2.60;;;22.60;49.40;;;;;;5099082;28;20055;-66
2023/10/06 09:41:11;;;;;;;11.02;2.85;;;22.60;48.90;;;;;;5098465;28;20119;-66
2023/10/06 09:43:40;;;;;;;5.90;2.25;;;22.80;48.60;;;;;;5099017;28;20020;-66
2023/10/06 09:46:13;;;;;;;11.65;2.90;;;22.90;47.10;;;;;;5098549;28;20024;-66
2023/10/06 09:48:42;;;;;;;6.10;2.53;;;22.90;48.20;;;;;;5098938;28;20063;-66
2023/10/06 09:51:10;;;;;;;10.18;2.92;;;22.90;48.80;;;;;;5098539;28;20039;-65
2023/10/06 09:53:43;;;;;;;6.90;2.78;;;23.00;48.40;;;;;;5098869;28;20028;-66
2023/10/06 09:56:11;;;;;;;6.63;2.72;;;22.80;48.60;;;;;;5094353;28;20333;-66
2023/10/06 09:58:53;;;;;;;5.70;2.20;;;23.00;48.30;;;;;;5098716;28;20052;-66
2023/10/06 10:01:24;;;;;;;6.35;2.53;;;23.10;49.00;;;;;;5098787;28;20028;-65
2023/10/06 10:03:55;;;;;;;9.77;2.77;;;23.20;48.30;;;;;;5098609;28;20107;-65
2023/10/06 10:06:21;;;;;;;8.88;2.78;;;23.30;47.40;;;;;;5098533;28;20252;-65
2023/10/06 10:08:48;;;;;;;5.88;2.60;;;22.90;47.10;;;;;;5098616;28;20024;-65
2023/10/06 10:11:20;;;;;;;7.80;2.45;;;22.50;47.40;;;;;;5097982;28;20469;-65
2023/10/06 10:14:24;;;;;;;5.50;2.58;;;22.50;47.90;;;;;;5098687;28;20040;-66
2023/10/06 10:17:18;;;;;;;6.63;2.85;;;22.60;47.70;;;;;;5098639;28;20039;-65
2023/10/06 10:19:46;;;;;;;5.78;2.90;;;22.80;47.50;;;;;;5098813;28;20028;-66
2023/10/06 10:22:13;;;;;;;9.20;2.92;;;22.90;47.40;;;;;;5098006;28;20024;-66
2023/10/06 10:24:40;;;;;;;6.70;2.40;;;22.80;47.90;;;;;;5091258;28;20460;-65
2023/10/06 10:27:13;;;;;;;5.63;1.92;;;22.70;46.70;;;;;;5094889;28;20028;-66
2023/10/06 10:29:41;;;;;;;6.35;2.67;;;23.00;47.40;;;;;;5095275;28;20042;-65
2023/10/06 10:32:23;;;;;;;8.00;2.70;;;23.10;47.00;;;;;;5094941;28;20440;-65
2023/10/06 10:35:09;;;;;;;6.40;2.88;;;23.30;47.20;;;;;;5095005;28;20089;-66
2023/10/06 10:37:55;;;;;;;7.38;2.55;;;23.40;46.40;;;;;;5094755;28;20392;-65
2023/10/06 10:40:26;;;;;;;7.38;2.63;;;23.60;45.90;;;;;;5095215;28;20055;-66
2023/10/06 10:43:00;;;;;;;;;;;23.60;45.80;;;;;;5094230;28;20028;-65
2023/10/06 10:45:44;;;;;;;5.55;2.55;;;23.10;45.90;;;;;;5095066;28;19910;-67
2023/10/06 10:48:13;;;;;;;5.18;2.60;;;23.30;45.00;;;;;;5094494;28;20032;-65
2023/10/06 10:51:01;;;;;;;8.40;2.33;;;22.80;45.00;;;;;;5094966;28;20090;-65
2023/10/06 10:53:37;;;;;;;5.32;2.63;;;22.80;45.40;;;;;;5095225;28;20032;-65
2023/10/06 10:56:04;;;;;;;9.88;2.58;;;23.00;45.40;;;;;;5094283;28;20086;-65
2023/10/06 10:58:41;;;;;;;5.40;2.33;;;23.10;45.80;;;;;;5094360;28;20087;-66
2023/10/06 11:01:22;;;;;;;6.63;2.40;;;23.20;44.80;;;;;;5093987;28;20202;-66
2023/10/06 11:04:08;;;;;;;5.30;2.42;;;23.20;44.50;;;;;;5093572;28;20542;-66
2023/10/06 11:06:35;;;;;;;6.82;2.58;;;23.30;44.30;;;;;;5074174;28;20024;-66
2023/10/06 11:11:45;;;;;;;6.70;2.63;;;23.30;45.30;;;;;;5074424;28;20036;-66
2023/10/06 11:14:12;;;;;;;8.13;2.35;;;23.30;44.40;;;;;;5073933;28;20025;-66
2023/10/06 11:16:43;;;;;;;6.32;2.63;;;23.20;44.40;;;;;;5074459;28;20063;-66
2023/10/06 11:19:14;;;;;;;7.28;2.50;;;23.30;44.50;;;;;;5073997;28;20039;-66
2023/10/06 11:21:41;;;;;;;7.45;2.55;;;23.10;44.00;;;;;;5074068;28;20449;-65
2023/10/06 11:24:07;;;;;;;8.73;2.83;;;23.20;44.50;;;;;;5073472;28;20037;-65
2023/10/06 11:26:32;;;;;;;8.13;2.58;;;23.20;44.20;;;;;;5074441;28;20027;-66
2023/10/06 11:29:00;;;;;;;7.47;2.63;;;23.30;43.00;;;;;;5073512;28;20373;-71
2023/10/06 11:31:27;;;;;;;7.35;2.75;;;23.50;44.30;;;;;;5074226;28;20030;-67
2023/10/06 11:33:54;;;;;;;6.05;2.75;;;23.40;43.60;;;;;;5073795;28;20025;-66
2023/10/06 11:36:20;;;;;;;5.82;2.55;;;23.40;43.70;;;;;;5072943;28;20465;-65
2023/10/06 11:38:47;;;;;;;7.70;3.42;;;23.40;42.70;;;;;;5073780;28;20115;-65
2023/10/06 11:41:21;;;;;;;6.97;3.35;;;23.40;42.20;;;;;;5073825;28;20085;-66
2023/10/06 11:43:58;;;;;;;9.60;3.08;;;23.40;42.00;;;;;;5073802;28;20024;-66
2023/10/06 11:46:24;;;;;;;7.80;3.08;;;23.20;42.50;;;;;;5073575;28;20032;-65
2023/10/06 11:48:52;;;;;;;7.47;4.10;;;23.10;42.70;;;;;;5073239;28;20037;-65
2023/10/06 11:51:18;;;;;;;8.95;3.35;;;22.90;42.90;;;;;;5073237;28;20023;-65
2023/10/06 11:53:44;;;;;;;11.75;3.58;;;23.00;42.60;;;;;;5073674;28;20028;-64
2023/10/06 11:56:13;;;;;;;7.55;3.28;;;22.80;41.80;;;;;;5073135;28;20029;-66
2023/10/06 11:58:40;;;;;;;9.13;3.45;;;22.80;41.40;;;;;;5073518;28;20481;-66
2023/10/06 12:01:32;;;;;;;7.75;3.67;;;22.90;41.70;;;;;;5075358;28;20066;-65
2023/10/06 12:04:04;;;;;;;8.27;3.63;;;22.70;41.90;;;;;;5073432;28;20028;-65
2023/10/06 12:06:40;;;;;;;7.00;3.78;;;22.50;40.50;;;;;;5073610;28;20024;-65
2023/10/06 12:09:13;;;;;;;7.57;3.60;;;22.40;39.90;;;;;;5072826;28;20040;-65
2023/10/06 12:11:39;;;;;;;6.00;3.25;;;22.30;40.10;;;;;;5073460;28;20060;-66
2023/10/06 12:14:05;;;;;;;8.38;3.80;;;22.40;41.60;;;;;;5072755;28;20024;-66
2023/10/06 12:16:31;;;;;;;9.98;4.13;;;22.30;41.40;;;;;;5073118;28;20021;-66
2023/10/06 12:18:56;;;;;;;7.55;3.38;;;22.40;41.90;;;;;;5073025;28;20028;-65
2023/10/06 12:21:22;;;;;;;16.52;3.92;;;22.50;41.90;;;;;;5072622;28;20039;-65
2023/10/06 12:23:48;;;;;;;9.48;4.38;;;22.40;42.70;;;;;;5075453;28;20078;-65
2023/10/06 12:26:14;;;;;;;9.48;4.18;;;22.40;42.30;;;;;;5072461;28;20540;-65
2023/10/06 12:28:42;;;;;;;8.18;3.80;;;22.50;42.60;;;;;;5072723;28;20037;-67
2023/10/06 12:31:08;;;;;;;6.53;3.25;;;22.40;42.30;;;;;;5072760;28;20433;-65
2023/10/06 12:33:34;;;;;;;10.00;3.60;;;22.40;42.70;;;;;;5072863;28;20031;-65
2023/10/06 12:36:03;;;;;;;7.50;3.60;;;22.50;42.30;;;;;;5072785;28;20105;-65
2023/10/06 12:38:30;;;;;;;6.93;3.15;;;22.40;42.70;;;;;;5073030;28;20119;-65
2023/10/06 12:40:55;;;;;;;8.05;3.47;;;22.40;43.20;;;;;;5071502;28;20020;-65
2023/10/06 12:43:21;;;;;;;9.35;3.30;;;22.50;43.40;;;;;;5072300;28;20103;-65
2023/10/06 12:45:47;;;;;;;6.45;3.42;;;22.40;42.90;;;;;;5072506;28;20043;-66
2023/10/06 12:48:13;;;;;;;9.32;3.70;;;22.40;42.80;;;;;;5071393;28;20120;-66
2023/10/06 12:50:42;;;;;;;7.97;3.55;;;22.30;42.70;;;;;;5072582;28;20032;-66
2023/10/06 12:53:10;;;;;;;11.38;4.00;;;22.20;42.90;;;;;;5072410;28;20028;-66
2023/10/06 12:55:35;;;;;;;8.25;3.55;;;22.20;43.00;;;;;;5072763;28;20021;-66
2023/10/06 12:58:01;;;;;;;9.40;3.60;;;22.10;43.00;;;;;;5072420;28;20052;-66
2023/10/06 13:00:28;;;;;;;7.35;3.35;;;22.10;45.10;;;;;;5072238;28;20057;-66
2023/10/06 13:02:54;;;;;;;12.10;3.80;;;22.10;44.70;;;;;;5072300;28;20366;-66
2023/10/06 13:05:22;;;;;;;10.98;3.95;;;22.20;44.60;;;;;;5072307;28;20028;-65
2023/10/06 13:07:49;;;;;;;8.38;3.78;;;22.20;44.20;;;;;;5085302;28;20036;-65
2023/10/06 13:10:22;;;;;;;12.80;4.60;;;22.10;44.00;;;;;;5092384;28;20107;-65